createdAt,value
2022-09-25T00:00:59.761Z,980.66
2022-09-25T00:01:59.753Z,980.61
2022-09-25T00:02:59.683Z,980.68
2022-09-25T00:03:59.664Z,980.66
2022-09-25T00:04:59.645Z,980.66
2022-09-25T00:05:59.647Z,980.70
2022-09-25T00:06:59.608Z,980.65
2022-09-25T00:07:59.600Z,980.55
2022-09-25T00:08:59.582Z,980.56
2022-09-25T00:09:59.568Z,980.64
2022-09-25T00:10:59.552Z,980.65
2022-09-25T00:11:59.552Z,980.59
2022-09-25T00:12:59.558Z,980.58
2022-09-25T00:13:59.529Z,980.60
2022-09-25T00:14:59.501Z,980.63
2022-09-25T00:15:59.556Z,980.62
2022-09-25T00:16:59.549Z,980.61
2022-09-25T00:17:59.510Z,980.62
2022-09-25T00:18:59.490Z,980.62
2022-09-25T00:19:59.462Z,980.60
2022-09-25T00:20:59.453Z,980.64
2022-09-25T00:21:59.450Z,980.61
2022-09-25T00:22:59.460Z,980.61
2022-09-25T00:23:59.431Z,980.64
2022-09-25T00:24:59.431Z,980.61
2022-09-25T00:25:59.411Z,980.62
2022-09-25T00:26:59.367Z,980.68
2022-09-25T00:27:59.412Z,980.59
2022-09-25T00:28:59.402Z,980.60
2022-09-25T00:29:59.371Z,980.59
2022-09-25T00:30:59.499Z,980.60
2022-09-25T00:31:59.342Z,980.58
2022-09-25T00:32:59.353Z,980.53
2022-09-25T00:33:59.332Z,980.57
2022-09-25T00:34:59.323Z,980.53
2022-09-25T00:35:59.303Z,980.54
2022-09-25T00:36:59.291Z,980.44
2022-09-25T00:37:59.274Z,980.44
2022-09-25T00:38:59.285Z,980.47
2022-09-25T00:39:59.266Z,980.48
2022-09-25T00:40:59.365Z,980.46
2022-09-25T00:41:59.235Z,980.48
2022-09-25T00:42:59.246Z,980.48
2022-09-25T00:43:59.217Z,980.47
2022-09-25T00:44:59.233Z,980.47
2022-09-25T00:45:59.203Z,980.47
2022-09-25T00:46:59.158Z,980.43
2022-09-25T00:47:59.173Z,980.46
2022-09-25T00:48:59.156Z,980.42
2022-09-25T00:49:59.140Z,980.47
2022-09-25T00:50:59.158Z,980.41
2022-09-25T00:51:59.159Z,980.38
2022-09-25T00:52:59.137Z,980.35
2022-09-25T00:53:59.107Z,980.38
2022-09-25T00:54:59.106Z,980.33
2022-09-25T00:55:59.114Z,980.27
2022-09-25T00:56:59.051Z,980.29
2022-09-25T00:57:59.089Z,980.27
2022-09-25T00:58:59.064Z,980.19
2022-09-25T00:59:59.056Z,980.16
2022-09-25T01:00:59.090Z,980.18
2022-09-25T01:01:59.093Z,980.14
2022-09-25T01:02:59.095Z,980.14
2022-09-25T01:03:58.982Z,980.12
2022-09-25T01:04:58.998Z,980.15
2022-09-25T01:05:58.969Z,980.18
2022-09-25T01:06:58.959Z,980.19
2022-09-25T01:07:58.959Z,980.22
2022-09-25T01:08:58.970Z,980.21
2022-09-25T01:09:58.930Z,980.23
2022-09-25T01:10:58.922Z,980.27
2022-09-25T01:11:58.919Z,980.26
2022-09-25T01:12:58.910Z,980.22
2022-09-25T01:13:58.920Z,980.28
2022-09-25T01:14:58.891Z,980.26
2022-09-25T01:15:58.902Z,980.24
2022-09-25T01:16:58.927Z,980.22
2022-09-25T01:17:58.851Z,980.23
2022-09-25T01:18:58.827Z,980.23
2022-09-25T01:19:58.821Z,980.25
2022-09-25T01:20:58.830Z,980.27
2022-09-25T01:21:58.799Z,980.27
2022-09-25T01:22:58.786Z,980.27
2022-09-25T01:23:58.794Z,980.23
2022-09-25T01:24:58.811Z,980.20
2022-09-25T01:25:58.788Z,980.23
2022-09-25T01:26:58.764Z,980.18
2022-09-25T01:27:58.744Z,980.17
2022-09-25T01:28:58.740Z,980.22
2022-09-25T01:29:58.742Z,980.21
2022-09-25T01:30:58.904Z,980.24
2022-09-25T01:31:58.693Z,980.23
2022-09-25T01:32:58.694Z,980.19
2022-09-25T01:33:58.685Z,980.22
2022-09-25T01:34:58.659Z,980.18
2022-09-25T01:35:58.626Z,980.21
2022-09-25T01:36:58.638Z,980.25
2022-09-25T01:37:58.599Z,980.24
2022-09-25T01:38:58.602Z,980.25
2022-09-25T01:39:58.581Z,980.24
2022-09-25T01:40:58.630Z,980.24
2022-09-25T01:41:58.562Z,980.22
2022-09-25T01:42:58.557Z,980.28
2022-09-25T01:43:58.568Z,980.21
2022-09-25T01:44:58.543Z,980.21
2022-09-25T01:45:58.553Z,980.25
2022-09-25T01:46:58.622Z,980.31
2022-09-25T01:47:58.491Z,980.38
2022-09-25T01:48:58.491Z,980.30
2022-09-25T01:49:58.471Z,980.31
2022-09-25T01:50:58.470Z,980.33
2022-09-25T01:51:58.455Z,980.27
2022-09-25T01:52:58.462Z,980.32
2022-09-25T01:53:58.443Z,980.39
2022-09-25T01:54:58.432Z,980.32
2022-09-25T01:55:58.412Z,980.35
2022-09-25T01:56:58.405Z,980.32
2022-09-25T01:57:58.391Z,980.30
2022-09-25T01:58:58.393Z,980.32
2022-09-25T01:59:58.381Z,980.31
2022-09-25T02:00:58.422Z,980.26
2022-09-25T02:01:58.352Z,980.30
2022-09-25T02:02:58.370Z,980.33
2022-09-25T02:03:58.332Z,980.29
2022-09-25T02:04:58.325Z,980.32
2022-09-25T02:05:58.314Z,980.38
2022-09-25T02:06:58.320Z,980.37
2022-09-25T02:07:58.308Z,980.35
2022-09-25T02:08:58.286Z,980.30
2022-09-25T02:09:58.271Z,980.27
2022-09-25T02:10:58.263Z,980.24
2022-09-25T02:11:58.246Z,980.21
2022-09-25T02:12:58.259Z,980.23
2022-09-25T02:13:58.237Z,980.22
2022-09-25T02:14:58.218Z,980.26
2022-09-25T02:15:58.197Z,980.22
2022-09-25T02:16:58.297Z,980.21
2022-09-25T02:17:58.200Z,980.24
2022-09-25T02:18:58.168Z,980.21
2022-09-25T02:19:58.169Z,980.23
2022-09-25T02:20:58.159Z,980.19
2022-09-25T02:21:58.139Z,980.16
2022-09-25T02:22:58.149Z,980.17
2022-09-25T02:23:58.115Z,980.11
2022-09-25T02:24:59.486Z,980.18
2022-09-25T02:25:58.098Z,980.13
2022-09-25T02:26:58.100Z,980.15
2022-09-25T02:27:58.069Z,980.15
2022-09-25T02:28:58.068Z,980.13
2022-09-25T02:29:58.052Z,980.19
2022-09-25T02:30:58.065Z,980.23
2022-09-25T02:31:58.034Z,980.22
2022-09-25T02:32:58.082Z,980.22
2022-09-25T02:33:58.010Z,980.25
2022-09-25T02:34:58.001Z,980.30
2022-09-25T02:35:57.991Z,980.21
2022-09-25T02:36:57.994Z,980.24
2022-09-25T02:37:57.992Z,980.21
2022-09-25T02:38:57.964Z,980.19
2022-09-25T02:39:57.968Z,980.16
2022-09-25T02:40:57.999Z,980.18
2022-09-25T02:41:57.924Z,980.22
2022-09-25T02:42:57.932Z,980.20
2022-09-25T02:43:57.922Z,980.20
2022-09-25T02:44:57.903Z,980.17
2022-09-25T02:45:57.916Z,980.19
2022-09-25T02:46:57.903Z,980.23
2022-09-25T02:47:57.877Z,980.20
2022-09-25T02:48:57.856Z,980.19
2022-09-25T02:49:57.843Z,980.16
2022-09-25T02:50:57.853Z,980.13
2022-09-25T02:51:57.824Z,980.13
2022-09-25T02:52:57.812Z,980.15
2022-09-25T02:53:57.795Z,980.17
2022-09-25T02:54:57.797Z,980.16
2022-09-25T02:55:57.776Z,980.12
2022-09-25T02:57:03.606Z,980.16
2022-09-25T02:57:58.756Z,980.09
2022-09-25T02:58:57.754Z,980.15
2022-09-25T02:59:57.736Z,980.05
2022-09-25T03:00:57.823Z,980.05
2022-09-25T03:01:57.775Z,980.10
2022-09-25T03:02:57.763Z,980.08
2022-09-25T03:03:57.710Z,980.06
2022-09-25T03:04:57.687Z,980.07
2022-09-25T03:05:57.677Z,980.14
2022-09-25T03:06:57.668Z,980.07
2022-09-25T03:07:57.678Z,980.09
2022-09-25T03:08:57.638Z,980.16
2022-09-25T03:09:57.627Z,980.15
2022-09-25T03:10:57.618Z,980.16
2022-09-25T03:11:57.599Z,980.14
2022-09-25T03:12:57.609Z,980.09
2022-09-25T03:13:57.587Z,980.14
2022-09-25T03:14:57.591Z,980.08
2022-09-25T03:15:57.758Z,980.10
2022-09-25T03:16:57.663Z,980.10
2022-09-25T03:17:57.543Z,980.11
2022-09-25T03:18:57.538Z,980.09
2022-09-25T03:19:57.550Z,980.07
2022-09-25T03:20:57.511Z,980.13
2022-09-25T03:21:57.516Z,980.21
2022-09-25T03:22:57.490Z,980.16
2022-09-25T03:23:57.481Z,980.15
2022-09-25T03:24:57.472Z,980.13
2022-09-25T03:25:57.477Z,980.17
2022-09-25T03:26:57.476Z,980.13
2022-09-25T03:27:57.471Z,980.17
2022-09-25T03:28:57.439Z,980.19
2022-09-25T03:29:57.421Z,980.16
2022-09-25T03:30:57.465Z,980.23
2022-09-25T03:31:57.402Z,980.21
2022-09-25T03:32:57.391Z,980.16
2022-09-25T03:33:57.371Z,980.17
2022-09-25T03:34:57.362Z,980.17
2022-09-25T03:35:57.375Z,980.17
2022-09-25T03:36:57.383Z,980.22
2022-09-25T03:37:57.333Z,980.21
2022-09-25T03:38:57.324Z,980.16
2022-09-25T03:39:57.314Z,980.21
2022-09-25T03:40:57.371Z,980.22
2022-09-25T03:41:57.285Z,980.20
2022-09-25T03:42:57.275Z,980.25
2022-09-25T03:43:57.282Z,980.19
2022-09-25T03:44:57.263Z,980.26
2022-09-25T03:45:57.321Z,980.25
2022-09-25T03:46:57.274Z,980.24
2022-09-25T03:47:57.225Z,980.19
2022-09-25T03:48:57.216Z,980.21
2022-09-25T03:49:57.226Z,980.18
2022-09-25T03:50:57.217Z,980.13
2022-09-25T03:51:57.183Z,980.13
2022-09-25T03:52:57.176Z,980.17
2022-09-25T03:53:57.156Z,980.15
2022-09-25T03:54:57.148Z,980.14
2022-09-25T03:55:57.158Z,980.16
2022-09-25T03:56:57.164Z,980.15
2022-09-25T03:57:57.119Z,980.16
2022-09-25T03:58:57.116Z,980.21
2022-09-25T03:59:57.097Z,980.17
2022-09-25T04:00:57.208Z,980.18
2022-09-25T04:01:57.739Z,980.13
2022-09-25T04:02:57.176Z,980.14
2022-09-25T04:03:57.050Z,980.11
2022-09-25T04:04:57.067Z,980.11
2022-09-25T04:05:57.049Z,980.16
2022-09-25T04:06:57.035Z,980.15
2022-09-25T04:07:57.027Z,980.11
2022-09-25T04:08:57.000Z,980.11
2022-09-25T04:09:56.990Z,980.06
2022-09-25T04:10:56.983Z,980.04
2022-09-25T04:11:57.090Z,980.00
2022-09-25T04:12:56.981Z,980.11
2022-09-25T04:13:56.942Z,980.06
2022-09-25T04:14:56.957Z,980.06
2022-09-25T04:15:56.965Z,980.06
2022-09-25T04:16:56.932Z,980.06
2022-09-25T04:17:56.926Z,980.09
2022-09-25T04:18:56.898Z,980.14
2022-09-25T04:19:56.892Z,980.11
2022-09-25T04:20:56.881Z,980.18
2022-09-25T04:21:56.883Z,980.14
2022-09-25T04:22:56.852Z,980.13
2022-09-25T04:23:56.873Z,980.14
2022-09-25T04:24:56.823Z,980.15
2022-09-25T04:25:56.836Z,980.15
2022-09-25T04:26:56.837Z,980.15
2022-09-25T04:27:56.803Z,980.12
2022-09-25T04:28:56.783Z,980.20
2022-09-25T04:29:56.795Z,980.22
2022-09-25T04:30:56.784Z,980.17
2022-09-25T04:31:56.807Z,980.16
2022-09-25T04:32:56.745Z,980.17
2022-09-25T04:33:56.748Z,980.13
2022-09-25T04:34:56.725Z,980.12
2022-09-25T04:35:56.742Z,980.11
2022-09-25T04:36:56.715Z,980.14
2022-09-25T04:37:56.715Z,980.15
2022-09-25T04:38:56.676Z,980.21
2022-09-25T04:39:56.677Z,980.13
2022-09-25T04:40:56.697Z,980.13
2022-09-25T04:41:56.666Z,980.16
2022-09-25T04:42:56.644Z,980.18
2022-09-25T04:43:57.006Z,980.14
2022-09-25T04:44:56.629Z,980.18
2022-09-25T04:45:57.563Z,980.22
2022-09-25T04:46:56.597Z,980.19
2022-09-25T04:47:56.588Z,980.18
2022-09-25T04:48:56.605Z,980.18
2022-09-25T04:49:56.567Z,980.20
2022-09-25T04:50:56.557Z,980.16
2022-09-25T04:51:56.548Z,980.14
2022-09-25T04:52:56.528Z,980.19
2022-09-25T04:53:56.546Z,980.16
2022-09-25T04:54:56.529Z,980.14
2022-09-25T04:55:56.525Z,980.20
2022-09-25T04:56:56.503Z,980.19
2022-09-25T04:57:59.189Z,980.11
2022-09-25T04:58:56.469Z,980.12
2022-09-25T04:59:56.490Z,980.13
2022-09-25T05:00:56.469Z,980.10
2022-09-25T05:01:56.556Z,980.10
2022-09-25T05:02:56.720Z,980.09
2022-09-25T05:03:56.517Z,980.07
2022-09-25T05:04:56.411Z,980.08
2022-09-25T05:05:56.432Z,980.06
2022-09-25T05:06:56.400Z,980.10
2022-09-25T05:07:56.379Z,980.14
2022-09-25T05:08:56.377Z,980.04
2022-09-25T05:09:56.360Z,980.08
2022-09-25T05:10:56.341Z,980.09
2022-09-25T05:11:56.343Z,980.06
2022-09-25T05:12:56.347Z,980.03
2022-09-25T05:13:56.321Z,980.01
2022-09-25T05:14:56.333Z,980.03
2022-09-25T05:15:56.431Z,980.07
2022-09-25T05:16:56.277Z,980.08
2022-09-25T05:17:56.280Z,980.09
2022-09-25T05:18:56.293Z,980.05
2022-09-25T05:19:56.244Z,980.08
2022-09-25T05:20:56.232Z,980.06
2022-09-25T05:21:56.234Z,980.13
2022-09-25T05:22:56.204Z,980.13
2022-09-25T05:23:56.237Z,980.16
2022-09-25T05:24:59.044Z,980.18
2022-09-25T05:25:56.192Z,980.17
2022-09-25T05:26:56.164Z,980.15
2022-09-25T05:27:56.163Z,980.17
2022-09-25T05:28:56.185Z,980.13
2022-09-25T05:29:56.145Z,980.15
2022-09-25T05:30:56.126Z,980.14
2022-09-25T05:31:56.123Z,980.12
2022-09-25T05:32:56.103Z,980.14
2022-09-25T05:33:56.134Z,980.17
2022-09-25T05:34:56.077Z,980.15
2022-09-25T05:35:56.135Z,980.12
2022-09-25T05:36:56.057Z,980.19
2022-09-25T05:37:56.187Z,980.20
2022-09-25T05:38:56.069Z,980.16
2022-09-25T05:39:56.038Z,980.20
2022-09-25T05:40:56.064Z,980.18
2022-09-25T05:41:56.048Z,980.21
2022-09-25T05:42:55.998Z,980.25
2022-09-25T05:43:56.008Z,980.18
2022-09-25T05:44:55.989Z,980.19
2022-09-25T05:45:56.119Z,980.22
2022-09-25T05:46:55.988Z,980.23
2022-09-25T05:47:55.956Z,980.21
2022-09-25T05:48:55.941Z,980.20
2022-09-25T05:49:55.948Z,980.21
2022-09-25T05:50:55.936Z,980.17
2022-09-25T05:51:55.959Z,980.23
2022-09-25T05:52:55.897Z,980.19
2022-09-25T05:53:55.891Z,980.25
2022-09-25T05:54:55.871Z,980.26
2022-09-25T05:55:55.888Z,980.18
2022-09-25T05:56:55.881Z,980.23
2022-09-25T05:57:55.850Z,980.22
2022-09-25T05:58:55.831Z,980.24
2022-09-25T05:59:55.822Z,980.25
2022-09-25T06:00:55.812Z,980.22
2022-09-25T06:01:55.909Z,980.25
2022-09-25T06:02:55.822Z,980.25
2022-09-25T06:03:55.783Z,980.19
2022-09-25T06:04:55.762Z,980.26
2022-09-25T06:05:55.773Z,980.20
2022-09-25T06:06:55.773Z,980.21
2022-09-25T06:07:55.745Z,980.21
2022-09-25T06:08:55.727Z,980.25
2022-09-25T06:09:55.724Z,980.22
2022-09-25T06:10:55.736Z,980.20
2022-09-25T06:11:55.707Z,980.25
2022-09-25T06:12:55.681Z,980.22
2022-09-25T06:13:55.703Z,980.27
2022-09-25T06:14:55.666Z,980.24
2022-09-25T06:15:55.680Z,980.22
2022-09-25T06:16:55.644Z,980.21
2022-09-25T06:17:55.674Z,980.24
2022-09-25T06:18:55.617Z,980.24
2022-09-25T06:19:55.613Z,980.25
2022-09-25T06:20:55.595Z,980.23
2022-09-25T06:21:55.615Z,980.24
2022-09-25T06:22:55.575Z,980.23
2022-09-25T06:23:55.575Z,980.21
2022-09-25T06:24:55.568Z,980.26
2022-09-25T06:25:55.596Z,980.23
2022-09-25T06:26:55.544Z,980.26
2022-09-25T06:27:55.567Z,980.27
2022-09-25T06:28:59.725Z,980.27
2022-09-25T06:29:56.508Z,980.26
2022-09-25T06:30:55.566Z,980.26
2022-09-25T06:31:55.487Z,980.23
2022-09-25T06:32:55.497Z,980.26
2022-09-25T06:33:55.498Z,980.28
2022-09-25T06:34:55.498Z,980.28
2022-09-25T06:35:55.450Z,980.31
2022-09-25T06:36:55.458Z,980.23
2022-09-25T06:37:55.421Z,980.24
2022-09-25T06:38:55.449Z,980.27
2022-09-25T06:39:55.450Z,980.28
2022-09-25T06:40:59.532Z,980.31
2022-09-25T06:41:55.384Z,980.29
2022-09-25T06:42:55.372Z,980.31
2022-09-25T06:43:55.401Z,980.32
2022-09-25T06:44:55.350Z,980.34
2022-09-25T06:45:55.436Z,980.31
2022-09-25T06:46:55.321Z,980.30
2022-09-25T06:47:55.319Z,980.35
2022-09-25T06:48:55.304Z,980.36
2022-09-25T06:49:55.325Z,980.30
2022-09-25T06:50:55.351Z,980.32
2022-09-25T06:51:55.280Z,980.29
2022-09-25T06:52:55.262Z,980.34
2022-09-25T06:53:55.287Z,980.32
2022-09-25T06:54:55.232Z,980.36
2022-09-25T06:55:55.247Z,980.31
2022-09-25T06:56:55.258Z,980.34
2022-09-25T06:57:55.217Z,980.35
2022-09-25T06:58:55.196Z,980.29
2022-09-25T06:59:55.203Z,980.31
2022-09-25T07:00:55.178Z,980.32
2022-09-25T07:01:55.336Z,980.36
2022-09-25T07:02:55.260Z,980.27
2022-09-25T07:03:55.150Z,980.32
2022-09-25T07:04:55.131Z,980.32
2022-09-25T07:05:55.178Z,980.40
2022-09-25T07:06:55.104Z,980.32
2022-09-25T07:07:55.143Z,980.41
2022-09-25T07:08:55.115Z,980.39
2022-09-25T07:09:55.085Z,980.39
2022-09-25T07:10:55.107Z,980.40
2022-09-25T07:11:55.067Z,980.37
2022-09-25T07:12:55.036Z,980.42
2022-09-25T07:13:55.247Z,980.48
2022-09-25T07:14:55.015Z,980.36
2022-09-25T07:15:55.068Z,980.37
2022-09-25T07:16:54.998Z,980.35
2022-09-25T07:17:54.998Z,980.43
2022-09-25T07:18:54.987Z,980.48
2022-09-25T07:19:54.968Z,980.41
2022-09-25T07:20:54.948Z,980.36
2022-09-25T07:21:54.948Z,980.40
2022-09-25T07:22:54.929Z,980.36
2022-09-25T07:23:54.927Z,980.40
2022-09-25T07:24:54.918Z,980.37
2022-09-25T07:25:54.911Z,980.38
2022-09-25T07:26:54.919Z,980.38
2022-09-25T07:27:54.930Z,980.33
2022-09-25T07:28:54.870Z,980.36
2022-09-25T07:29:55.618Z,980.35
2022-09-25T07:30:54.860Z,980.39
2022-09-25T07:31:54.889Z,980.35
2022-09-25T07:32:59.806Z,980.35
2022-09-25T07:33:55.810Z,980.36
2022-09-25T07:34:54.799Z,980.32
2022-09-25T07:35:54.801Z,980.40
2022-09-25T07:36:54.821Z,980.40
2022-09-25T07:37:54.779Z,980.37
2022-09-25T07:38:54.760Z,980.36
2022-09-25T07:39:54.754Z,980.39
2022-09-25T07:40:54.827Z,980.39
2022-09-25T07:41:54.740Z,980.38
2022-09-25T07:42:54.724Z,980.36
2022-09-25T07:44:06.291Z,980.39
2022-09-25T07:44:55.693Z,980.40
2022-09-25T07:45:54.716Z,980.35
2022-09-25T07:46:54.703Z,980.36
2022-09-25T07:47:54.675Z,980.35
2022-09-25T07:48:54.652Z,980.41
2022-09-25T07:49:54.654Z,980.37
2022-09-25T07:50:54.634Z,980.40
2022-09-25T07:51:54.657Z,980.39
2022-09-25T07:52:54.612Z,980.36
2022-09-25T07:53:54.614Z,980.35
2022-09-25T07:54:54.583Z,980.35
2022-09-25T07:55:54.582Z,980.40
2022-09-25T07:56:54.604Z,980.28
2022-09-25T07:57:54.572Z,980.38
2022-09-25T07:58:54.545Z,980.33
2022-09-25T07:59:54.575Z,980.40
2022-09-25T08:00:54.526Z,980.37
2022-09-25T08:01:54.622Z,980.41
2022-09-25T08:02:54.551Z,980.41
2022-09-25T08:03:54.497Z,980.41
2022-09-25T08:04:54.517Z,980.47
2022-09-25T08:05:54.477Z,980.43
2022-09-25T08:06:54.466Z,980.46
2022-09-25T08:07:54.480Z,980.45
2022-09-25T08:08:55.057Z,980.45
2022-09-25T08:09:54.488Z,980.50
2022-09-25T08:10:54.417Z,980.46
2022-09-25T08:11:54.420Z,980.50
2022-09-25T08:12:54.429Z,980.45
2022-09-25T08:13:54.389Z,980.52
2022-09-25T08:14:54.385Z,980.48
2022-09-25T08:15:54.434Z,980.42
2022-09-25T08:16:54.360Z,980.50
2022-09-25T08:17:54.359Z,980.53
2022-09-25T08:18:54.338Z,980.44
2022-09-25T08:19:55.018Z,980.48
2022-09-25T08:20:54.310Z,980.48
2022-09-25T08:21:54.312Z,980.45
2022-09-25T08:22:54.290Z,980.44
2022-09-25T08:23:54.321Z,980.46
2022-09-25T08:24:54.270Z,980.42
2022-09-25T08:25:54.263Z,980.46
2022-09-25T08:26:54.249Z,980.48
2022-09-25T08:27:54.242Z,980.44
2022-09-25T08:28:54.221Z,980.43
2022-09-25T08:29:54.221Z,980.45
2022-09-25T08:30:54.368Z,980.38
2022-09-25T08:31:54.222Z,980.43
2022-09-25T08:32:54.192Z,980.44
2022-09-25T08:33:54.184Z,980.42
2022-09-25T08:34:54.176Z,980.40
2022-09-25T08:35:54.196Z,980.45
2022-09-25T08:36:54.154Z,980.38
2022-09-25T08:37:54.143Z,980.40
2022-09-25T08:38:54.113Z,980.41
2022-09-25T08:39:54.357Z,980.42
2022-09-25T08:40:54.130Z,980.40
2022-09-25T08:41:54.083Z,980.45
2022-09-25T08:42:54.084Z,980.38
2022-09-25T08:43:54.064Z,980.41
2022-09-25T08:45:17.024Z,980.38
2022-09-25T08:45:55.120Z,980.38
2022-09-25T08:46:54.037Z,980.39
2022-09-25T08:47:54.022Z,980.39
2022-09-25T08:48:54.032Z,980.38
2022-09-25T08:49:54.224Z,980.33
2022-09-25T08:50:54.009Z,980.35
2022-09-25T08:51:53.989Z,980.32
2022-09-25T08:52:53.976Z,980.34
2022-09-25T08:53:53.996Z,980.34
2022-09-25T08:54:53.948Z,980.30
2022-09-25T08:55:53.951Z,980.33
2022-09-25T08:56:53.946Z,980.26
2022-09-25T08:57:53.919Z,980.31
2022-09-25T08:58:53.919Z,980.30
2022-09-25T08:59:58.222Z,980.23
2022-09-25T09:00:54.878Z,980.30
2022-09-25T09:01:53.982Z,980.25
2022-09-25T09:02:53.916Z,980.23
2022-09-25T09:03:53.852Z,980.25
2022-09-25T09:04:53.849Z,980.27
2022-09-25T09:05:53.829Z,980.24
2022-09-25T09:07:24.675Z,980.21
2022-09-25T09:07:54.814Z,980.27
2022-09-25T09:08:53.801Z,980.29
2022-09-25T09:09:53.798Z,980.29
2022-09-25T09:10:53.791Z,980.24
2022-09-25T09:11:53.761Z,980.22
2022-09-25T09:12:53.775Z,980.29
2022-09-25T09:13:53.771Z,980.32
2022-09-25T09:14:53.742Z,980.21
2022-09-25T09:15:53.762Z,980.30
2022-09-25T09:16:53.713Z,980.32
2022-09-25T09:17:53.710Z,980.32
2022-09-25T09:18:53.751Z,980.32
2022-09-25T09:19:53.693Z,980.26
2022-09-25T09:20:53.691Z,980.29
2022-09-25T09:21:53.654Z,980.29
2022-09-25T09:22:53.655Z,980.34
2022-09-25T09:23:53.634Z,980.29
2022-09-25T09:24:53.662Z,980.31
2022-09-25T09:25:53.622Z,980.24
2022-09-25T09:26:53.635Z,980.23
2022-09-25T09:27:53.595Z,980.22
2022-09-25T09:28:53.595Z,980.25
2022-09-25T09:29:53.596Z,980.24
2022-09-25T09:30:53.675Z,980.24
2022-09-25T09:31:53.557Z,980.22
2022-09-25T09:32:53.550Z,980.22
2022-09-25T09:33:53.526Z,980.19
2022-09-25T09:35:05.321Z,980.24
2022-09-25T09:35:54.547Z,980.26
2022-09-25T09:36:53.507Z,980.20
2022-09-25T09:37:53.493Z,980.21
2022-09-25T09:38:53.515Z,980.16
2022-09-25T09:39:53.468Z,980.19
2022-09-25T09:40:53.497Z,980.25
2022-09-25T09:41:53.468Z,980.18
2022-09-25T09:42:53.439Z,980.24
2022-09-25T09:43:57.401Z,980.24
2022-09-25T09:44:53.418Z,980.22
2022-09-25T09:45:53.440Z,980.19
2022-09-25T09:46:53.420Z,980.20
2022-09-25T09:47:53.411Z,980.14
2022-09-25T09:48:53.386Z,980.18
2022-09-25T09:49:53.401Z,980.11
2022-09-25T09:50:53.406Z,980.12
2022-09-25T09:51:53.338Z,980.20
2022-09-25T09:52:53.330Z,980.10
2022-09-25T09:53:53.362Z,980.12
2022-09-25T09:54:53.311Z,980.09
2022-09-25T09:55:53.331Z,980.12
2022-09-25T09:56:53.282Z,980.20
2022-09-25T09:57:53.274Z,980.25
2022-09-25T09:58:53.262Z,980.27
2022-09-25T09:59:53.260Z,980.32
2022-09-25T10:00:53.274Z,980.21
2022-09-25T10:01:53.425Z,980.24
2022-09-25T10:02:53.360Z,980.24
2022-09-25T10:03:53.213Z,980.29
2022-09-25T10:04:53.206Z,980.24
2022-09-25T10:05:53.226Z,980.20
2022-09-25T10:06:53.184Z,980.20
2022-09-25T10:07:53.165Z,980.19
2022-09-25T10:08:53.155Z,980.20
2022-09-25T10:09:53.205Z,980.21
2022-09-25T10:10:53.135Z,980.19
2022-09-25T10:11:53.138Z,980.13
2022-09-25T10:12:53.116Z,980.17
2022-09-25T10:13:53.103Z,980.16
2022-09-25T10:14:53.099Z,980.17
2022-09-25T10:15:53.161Z,980.14
2022-09-25T10:16:53.086Z,980.15
2022-09-25T10:17:53.066Z,980.10
2022-09-25T10:18:53.046Z,980.08
2022-09-25T10:19:53.046Z,980.09
2022-09-25T10:20:53.150Z,980.06
2022-09-25T10:21:53.072Z,980.11
2022-09-25T10:22:53.010Z,980.08
2022-09-25T10:23:52.988Z,980.05
2022-09-25T10:24:52.996Z,980.08
2022-09-25T10:25:56.028Z,980.07
2022-09-25T10:26:52.999Z,980.03
2022-09-25T10:27:52.956Z,980.04
2022-09-25T10:28:52.981Z,980.03
2022-09-25T10:29:52.939Z,979.99
2022-09-25T10:30:52.930Z,980.04
2022-09-25T10:31:52.929Z,980.00
2022-09-25T10:32:57.314Z,980.06
2022-09-25T10:33:52.916Z,979.98
2022-09-25T10:34:52.881Z,980.03
2022-09-25T10:35:52.861Z,980.06
2022-09-25T10:36:52.891Z,980.08
2022-09-25T10:37:52.871Z,980.05
2022-09-25T10:39:04.928Z,980.04
2022-09-25T10:39:53.839Z,980.04
2022-09-25T10:40:52.902Z,980.05
2022-09-25T10:41:52.843Z,980.07
2022-09-25T10:42:52.792Z,980.06
2022-09-25T10:43:52.783Z,980.07
2022-09-25T10:44:57.691Z,980.09
2022-09-25T10:45:53.835Z,980.10
2022-09-25T10:46:52.754Z,980.11
2022-09-25T10:47:52.745Z,980.08
2022-09-25T10:48:52.724Z,980.13
2022-09-25T10:49:52.714Z,980.18
2022-09-25T10:50:52.703Z,980.13
2022-09-25T10:51:52.718Z,980.12
2022-09-25T10:53:01.246Z,980.16
2022-09-25T10:53:52.667Z,980.17
2022-09-25T10:54:52.695Z,980.22
2022-09-25T10:55:52.647Z,980.20
2022-09-25T10:56:52.696Z,980.20
2022-09-25T10:57:52.663Z,980.17
2022-09-25T10:58:52.641Z,980.15
2022-09-25T10:59:52.650Z,980.19
2022-09-25T11:00:52.608Z,980.15
2022-09-25T11:01:52.666Z,980.15
2022-09-25T11:02:52.693Z,980.14
2022-09-25T11:03:52.569Z,980.14
2022-09-25T11:04:52.556Z,980.16
2022-09-25T11:05:52.549Z,980.13
2022-09-25T11:06:52.552Z,980.16
2022-09-25T11:07:52.539Z,980.17
2022-09-25T11:08:52.587Z,980.17
2022-09-25T11:09:55.198Z,980.19
2022-09-25T11:10:53.495Z,980.19
2022-09-25T11:11:52.748Z,980.17
2022-09-25T11:12:52.479Z,980.21
2022-09-25T11:13:52.479Z,980.24
2022-09-25T11:14:52.450Z,980.27
2022-09-25T11:15:52.449Z,980.26
2022-09-25T11:16:52.486Z,980.25
2022-09-25T11:17:52.421Z,980.24
2022-09-25T11:18:52.411Z,980.23
2022-09-25T11:19:52.419Z,980.24
2022-09-25T11:20:52.394Z,980.22
2022-09-25T11:21:52.371Z,980.21
2022-09-25T11:22:52.402Z,980.25
2022-09-25T11:23:52.354Z,980.20
2022-09-25T11:24:54.870Z,980.19
2022-09-25T11:25:53.333Z,980.27
2022-09-25T11:26:52.365Z,980.24
2022-09-25T11:27:52.305Z,980.23
2022-09-25T11:28:52.317Z,980.28
2022-09-25T11:29:52.290Z,980.23
2022-09-25T11:30:52.342Z,980.24
2022-09-25T11:31:52.263Z,980.25
2022-09-25T11:32:52.934Z,980.22
2022-09-25T11:33:52.253Z,980.20
2022-09-25T11:34:52.247Z,980.20
2022-09-25T11:35:52.224Z,980.20
2022-09-25T11:36:52.214Z,980.21
2022-09-25T11:37:52.197Z,980.22
2022-09-25T11:38:52.194Z,980.16
2022-09-25T11:39:52.185Z,980.13
2022-09-25T11:40:52.222Z,980.15
2022-09-25T11:41:52.156Z,980.15
2022-09-25T11:42:52.156Z,980.17
2022-09-25T11:43:57.737Z,980.11
2022-09-25T11:44:53.145Z,980.15
2022-09-25T11:45:52.142Z,980.16
2022-09-25T11:46:52.115Z,980.16
2022-09-25T11:47:52.097Z,980.12
2022-09-25T11:48:52.087Z,980.14
2022-09-25T11:49:52.089Z,980.14
2022-09-25T11:50:52.075Z,980.17
2022-09-25T11:51:52.061Z,980.09
2022-09-25T11:52:52.059Z,980.04
2022-09-25T11:53:52.037Z,980.03
2022-09-25T11:54:52.040Z,979.99
2022-09-25T11:55:52.007Z,980.02
2022-09-25T11:56:52.000Z,979.98
2022-09-25T11:57:51.990Z,979.98
2022-09-25T11:58:51.982Z,979.97
2022-09-25T11:59:51.978Z,979.98
2022-09-25T12:00:51.973Z,979.92
2022-09-25T12:01:51.975Z,979.95
2022-09-25T12:02:52.053Z,979.93
2022-09-25T12:03:52.002Z,979.91
2022-09-25T12:04:51.919Z,979.93
2022-09-25T12:05:51.925Z,979.86
2022-09-25T12:06:51.894Z,979.86
2022-09-25T12:07:51.901Z,979.85
2022-09-25T12:08:51.876Z,979.82
2022-09-25T12:09:51.864Z,979.82
2022-09-25T12:10:51.853Z,979.82
2022-09-25T12:11:51.914Z,979.84
2022-09-25T12:12:51.830Z,979.84
2022-09-25T12:13:51.832Z,979.85
2022-09-25T12:14:51.814Z,979.84
2022-09-25T12:15:51.834Z,979.89
2022-09-25T12:16:51.842Z,979.82
2022-09-25T12:17:51.807Z,979.86
2022-09-25T12:18:51.785Z,979.89
2022-09-25T12:19:51.785Z,979.85
2022-09-25T12:20:51.753Z,979.87
2022-09-25T12:21:51.737Z,979.92
2022-09-25T12:22:51.737Z,979.82
2022-09-25T12:23:51.718Z,979.82
2022-09-25T12:24:51.745Z,979.78
2022-09-25T12:25:51.707Z,979.76
2022-09-25T12:26:51.698Z,979.74
2022-09-25T12:27:51.667Z,979.81
2022-09-25T12:28:51.697Z,979.79